Time;durP1;ratioP1;P1;durP2;ratioP2;P2;SDS_P1;SDS_P2;PMS_P1;PMS_P2;Temp;Humidity;BMP_temperature;BMP_pressure;BME280_temperature;BME280_humidity;BME280_pressure;Samples;Min_cycle;Max_cycle;Signal;HPM_P1;HPM_P2
2021/08/18 00:03:58;;;;;;;3.87;2.57;;;;;;;11.91;73.21;98595.58;262903;1090;27098;-77
2021/08/18 00:09:22;;;;;;;3.07;2.77;;;;;;;11.87;73.19;98593.80;262530;1087;24211;-76
2021/08/18 00:14:47;;;;;;;4.10;2.40;;;;;;;11.86;73.29;98600.27;262776;1089;26304;-77
2021/08/18 00:19:51;;;;;;;4.60;2.80;;;;;;;11.84;73.64;98594.41;262641;1088;22778;-77
2021/08/18 00:25:06;;;;;;;4.07;2.60;;;;;;;11.81;73.61;98588.53;262576;1090;23284;-75
2021/08/18 00:30:12;;;;;;;4.35;2.55;;;;;;;11.84;73.75;98587.14;262315;1090;22921;-76
2021/08/18 00:35:15;;;;;;;4.25;2.90;;;;;;;11.84;74.03;98589.05;262706;1090;25877;-76
2021/08/18 00:40:19;;;;;;;3.50;2.30;;;;;;;11.86;73.95;98584.94;262719;1087;27111;-77
2021/08/18 00:45:22;;;;;;;5.00;2.70;;;;;;;11.87;73.98;98588.44;262800;1087;24167;-76
2021/08/18 00:50:28;;;;;;;4.60;2.85;;;;;;;11.90;74.12;98598.56;262847;1087;23759;-75
2021/08/18 00:55:31;;;;;;;3.60;2.70;;;;;;;11.94;74.36;98597.69;262717;1087;24289;-75
2021/08/18 01:00:41;;;;;;;4.25;3.10;;;;;;;12.01;74.03;98608.02;262766;1087;22864;-76
2021/08/18 01:06:07;;;;;;;2.90;2.40;;;;;;;12.06;74.34;98602.55;262694;1089;22767;-76
2021/08/18 01:11:11;;;;;;;2.97;2.40;;;;;;;12.15;74.21;98600.71;262498;1089;22817;-76
2021/08/18 01:16:16;;;;;;;3.77;2.37;;;;;;;12.21;73.88;98597.92;262999;1086;25438;-76
2021/08/18 01:21:19;;;;;;;7.70;3.17;;;;;;;12.25;73.85;98604.28;263001;1087;26015;-75
2021/08/18 01:26:23;;;;;;;3.70;2.55;;;;;;;12.25;73.98;98598.91;262883;1087;25771;-75
2021/08/18 01:31:26;;;;;;;3.95;2.40;;;;;;;12.26;73.94;98595.91;262780;1087;24313;-76
2021/08/18 01:36:31;;;;;;;3.77;2.60;;;;;;;12.29;73.99;98592.62;262792;1087;23827;-76
2021/08/18 01:41:35;;;;;;;5.27;3.20;;;;;;;12.30;74.23;98580.78;262993;1087;22638;-76
2021/08/18 01:46:40;;;;;;;4.40;2.70;;;;;;;12.35;74.03;98577.17;262976;1090;22770;-76
2021/08/18 01:51:43;;;;;;;6.23;2.70;;;;;;;12.37;73.51;98572.30;262986;1089;23210;-76
2021/08/18 01:56:46;;;;;;;5.00;2.60;;;;;;;12.36;73.62;98570.71;262977;1089;24345;-76
2021/08/18 02:01:49;;;;;;;6.80;3.27;;;;;;;12.33;73.79;98566.73;262391;1089;27101;-76
2021/08/18 02:06:57;;;;;;;4.80;3.60;;;;;;;12.33;73.69;98557.89;262875;1089;22784;-76
2021/08/18 02:12:00;;;;;;;5.27;2.87;;;;;;;12.29;73.70;98564.98;262814;1089;23347;-75
2021/08/18 02:17:05;;;;;;;5.85;3.35;;;;;;;12.23;73.71;98558.93;262857;1089;26015;-76
2021/08/18 02:22:08;;;;;;;6.85;4.75;;;;;;;12.16;73.95;98561.25;262718;1087;24061;-76
2021/08/18 02:27:11;;;;;;;7.60;5.60;;;;;;;12.07;74.22;98560.38;262687;1086;25909;-76
2021/08/18 02:32:14;;;;;;;9.90;6.30;;;;;;;12.02;74.29;98563.16;262716;1088;22773;-76
2021/08/18 02:37:17;;;;;;;8.80;6.25;;;;;;;11.96;74.43;98565.16;262772;1088;22822;-76
2021/08/18 02:42:41;;;;;;;12.80;7.30;;;;;;;11.86;74.50;98551.95;262990;1089;23407;-76
2021/08/18 02:47:44;;;;;;;8.70;6.10;;;;;;;11.76;75.05;98561.02;262731;1088;22779;-76
2021/08/18 02:52:48;;;;;;;8.13;5.90;;;;;;;11.72;75.04;98557.34;262774;1087;22766;-76
2021/08/18 02:57:52;;;;;;;8.50;5.73;;;;;;;11.68;75.24;98569.77;262763;1087;22949;-76
2021/08/18 03:02:55;;;;;;;8.70;5.47;;;;;;;11.61;75.48;98562.94;262796;1086;25803;-75
2021/08/18 03:07:59;;;;;;;6.60;5.00;;;;;;;11.60;75.71;98561.34;262918;1087;25883;-76
2021/08/18 03:13:03;;;;;;;12.10;6.60;;;;;;;11.62;76.03;98577.91;262709;1087;23221;-76
2021/08/18 03:18:09;;;;;;;6.70;4.53;;;;;;;11.62;76.05;98574.45;262793;1090;22806;-76
2021/08/18 03:23:12;;;;;;;7.00;4.50;;;;;;;11.67;76.27;98574.35;262837;1087;24332;-76
2021/08/18 03:28:28;;;;;;;6.90;4.87;;;;;;;11.70;76.42;98578.33;262655;1089;24527;-76
2021/08/18 03:33:45;;;;;;;7.85;4.30;;;;;;;11.74;76.36;98587.38;262717;1087;24164;-75
2021/08/18 03:38:48;;;;;;;6.87;4.50;;;;;;;11.81;76.60;98585.07;262928;1087;24571;-77
2021/08/18 03:43:53;;;;;;;7.15;4.80;;;;;;;11.88;76.58;98582.77;262844;1087;22817;-77
2021/08/18 03:48:56;;;;;;;7.07;4.13;;;;;;;11.92;76.57;98588.31;262703;1087;22767;-76
2021/08/18 03:53:59;;;;;;;4.87;3.77;;;;;;;11.96;76.43;98586.64;262866;1087;23420;-76
2021/08/18 03:59:03;;;;;;;8.35;4.95;;;;;;;12.01;76.42;98585.75;262791;1087;22841;-76
2021/08/18 04:04:09;;;;;;;5.70;3.95;;;;;;;12.02;76.85;98582.77;262812;1087;25877;-76
2021/08/18 04:09:12;;;;;;;7.20;3.65;;;;;;;12.09;76.82;98588.51;262758;1087;25886;-76
2021/08/18 04:14:23;;;;;;;7.40;4.45;;;;;;;12.15;76.55;98583.82;262759;1087;22852;-76
2021/08/18 04:19:47;;;;;;;7.20;3.80;;;;;;;12.17;76.36;98589.66;262787;1087;22786;-76
2021/08/18 04:24:50;;;;;;;6.40;3.67;;;;;;;12.21;76.28;98587.19;262853;1087;26282;-76
2021/08/18 04:30:00;;;;;;;7.00;4.30;;;;;;;12.23;76.52;98590.38;262907;1087;25765;-76
2021/08/18 04:35:12;;;;;;;5.60;3.60;;;;;;;12.21;76.48;98593.34;262799;1087;25894;-78
2021/08/18 04:40:16;;;;;;;5.40;3.73;;;;;;;12.30;76.84;98604.17;262867;1087;25893;-76
2021/08/18 04:45:33;;;;;;;6.20;4.05;;;;;;;12.37;76.35;98606.41;262725;1087;22771;-77
2021/08/18 04:50:36;;;;;;;6.10;4.00;;;;;;;12.45;76.41;98601.13;262839;1087;24186;-76
2021/08/18 04:55:41;;;;;;;6.05;4.05;;;;;;;12.56;76.15;98601.66;262771;1087;22807;-76
2021/08/18 05:00:44;;;;;;;7.35;4.70;;;;;;;12.60;76.02;98601.86;262795;1087;27246;-77
2021/08/18 05:05:48;;;;;;;4.70;3.73;;;;;;;12.65;76.15;98607.12;262850;1086;26245;-76
2021/08/18 05:10:52;;;;;;;5.55;4.10;;;;;;;12.77;75.91;98610.05;262887;1087;22771;-76
2021/08/18 05:16:00;;;;;;;7.20;4.05;;;;;;;12.90;75.78;98621.02;262750;1089;22779;-76
2021/08/18 05:21:05;;;;;;;7.57;3.47;;;;;;;13.05;75.48;98625.22;262820;1087;23318;-77
2021/08/18 05:26:09;;;;;;;7.30;4.40;;;;;;;13.18;75.33;98625.14;262847;1085;26312;-76
2021/08/18 05:31:14;;;;;;;6.40;3.80;;;;;;;13.30;75.13;98627.23;262893;1087;23053;-76
2021/08/18 05:36:18;;;;;;;5.40;4.10;;;;;;;13.45;74.85;98625.28;262877;1090;22918;-76
2021/08/18 05:41:22;;;;;;;5.40;3.60;;;;;;;13.59;74.68;98625.96;263057;1089;22806;-77
2021/08/18 05:46:27;;;;;;;6.40;3.40;;;;;;;13.72;74.48;98639.63;263308;1090;22896;-74
2021/08/18 05:51:31;;;;;;;8.00;5.10;;;;;;;13.86;74.34;98635.72;263360;1087;24457;-73
2021/08/18 05:56:34;;;;;;;5.43;3.87;;;;;;;13.91;73.56;98631.29;263652;1087;22825;-73
2021/08/18 06:01:45;;;;;;;10.50;4.83;;;;;;;13.94;73.64;98633.34;263739;1087;22922;-73
2021/08/18 06:07:03;;;;;;;7.95;4.55;;;;;;;14.01;73.38;98639.06;263783;1087;22784;-73
2021/08/18 06:12:08;;;;;;;5.75;4.00;;;;;;;14.17;73.21;98634.00;264006;1087;23833;-73
2021/08/18 06:17:33;;;;;;;5.60;4.10;;;;;;;14.30;72.90;98645.77;269695;1090;22779;-73
2021/08/18 06:22:40;;;;;;;7.70;3.90;;;;;;;14.39;72.90;98643.85;265977;1087;23269;-73
2021/08/18 06:27:44;;;;;;;8.33;4.67;;;;;;;14.48;72.48;98649.23;265467;1087;22874;-73
2021/08/18 06:32:48;;;;;;;6.95;4.50;;;;;;;14.52;72.50;98658.27;263387;1087;22928;-73
2021/08/18 06:37:52;;;;;;;7.45;3.90;;;;;;;14.70;72.58;98657.21;263804;1087;22774;-74
2021/08/18 06:43:03;;;;;;;7.37;4.20;;;;;;;14.96;71.82;98644.80;263165;1087;27189;-74
2021/08/18 06:48:13;;;;;;;5.90;3.75;;;;;;;15.09;71.88;98645.72;263643;1087;22863;-74
2021/08/18 06:53:16;;;;;;;8.73;4.80;;;;;;;15.21;71.58;98633.14;263726;1087;25477;-73
2021/08/18 06:58:20;;;;;;;8.25;4.70;;;;;;;15.35;71.06;98634.86;263516;1087;22793;-73
2021/08/18 07:03:24;;;;;;;6.13;4.10;;;;;;;15.57;71.00;98640.00;263669;1087;22816;-73
2021/08/18 07:08:28;;;;;;;6.57;4.17;;;;;;;15.84;70.93;98635.28;265904;1085;22918;-74
2021/08/18 07:13:31;;;;;;;6.65;4.75;;;;;;;16.05;70.25;98637.23;263473;1087;22861;-73
2021/08/18 07:18:35;;;;;;;6.30;4.10;;;;;;;16.29;69.63;98622.29;263284;1087;22847;-74
2021/08/18 07:23:43;;;;;;;6.25;4.70;;;;;;;16.37;67.36;98634.95;263376;1087;22792;-73
2021/08/18 07:28:49;;;;;;;6.90;5.10;;;;;;;16.43;67.19;98628.98;263208;1087;22819;-73
2021/08/18 07:34:12;;;;;;;8.05;4.80;;;;;;;16.64;66.81;98635.52;263302;1085;26411;-73
2021/08/18 07:39:16;;;;;;;7.75;4.50;;;;;;;16.80;67.05;98635.68;263205;1087;22793;-73
2021/08/18 07:44:19;;;;;;;7.05;4.90;;;;;;;16.92;65.90;98635.75;263285;1089;24352;-73
2021/08/18 07:49:23;;;;;;;6.70;5.05;;;;;;;16.96;64.23;98630.45;263247;1085;22781;-73
2021/08/18 07:54:26;;;;;;;6.95;4.40;;;;;;;16.96;64.58;98635.86;263124;1087;28885;-73
2021/08/18 07:59:30;;;;;;;5.65;4.30;;;;;;;17.15;64.34;98636.13;263249;1086;23382;-73
2021/08/18 08:04:34;;;;;;;8.55;5.50;;;;;;;17.43;64.69;98632.80;262988;1088;23590;-72
2021/08/18 08:09:37;;;;;;;6.90;5.00;;;;;;;17.78;64.50;98626.93;263052;1088;22821;-73
2021/08/18 08:14:40;;;;;;;6.43;4.50;;;;;;;18.18;62.83;98617.31;263119;1089;22756;-74
2021/08/18 08:19:43;;;;;;;7.35;5.00;;;;;;;18.37;61.54;98608.55;263042;1089;23347;-73
2021/08/18 08:24:47;;;;;;;7.95;5.30;;;;;;;18.51;60.83;98608.16;263082;1087;25995;-74
2021/08/18 08:29:50;;;;;;;6.00;4.40;;;;;;;18.92;61.09;98604.27;263175;1087;23805;-74
2021/08/18 08:34:53;;;;;;;6.25;4.95;;;;;;;19.23;58.99;98600.00;263106;1087;25955;-73
2021/08/18 08:39:57;;;;;;;6.65;5.10;;;;;;;19.32;57.67;98608.77;263216;1087;22808;-73
2021/08/18 08:45:09;;;;;;;5.25;3.95;;;;;;;19.48;53.11;98600.60;263261;1087;22911;-72
2021/08/18 08:50:14;;;;;;;5.95;4.25;;;;;;;19.45;52.88;98606.75;263586;1087;26347;-73
2021/08/18 08:55:19;;;;;;;6.60;5.30;;;;;;;19.34;54.20;98602.98;263456;1087;22745;-73
2021/08/18 09:00:24;;;;;;;5.50;4.57;;;;;;;19.40;54.03;98598.08;264485;1087;25996;-73
2021/08/18 09:05:45;;;;;;;5.60;4.40;;;;;;;19.43;53.70;98600.08;263952;1087;22797;-73
2021/08/18 09:11:20;;;;;;;6.53;4.90;;;;;;;19.56;54.72;98592.62;263512;1087;25849;-73
2021/08/18 09:16:38;;;;;;;5.83;5.00;;;;;;;19.90;53.84;98593.81;265760;1088;22755;-72
2021/08/18 09:21:43;;;;;;;5.37;4.30;;;;;;;19.98;52.77;98602.93;263277;1088;22841;-74
2021/08/18 09:26:52;;;;;;;5.93;4.17;;;;;;;20.06;52.77;98592.98;262992;1087;22783;-73
2021/08/18 09:31:57;;;;;;;5.25;4.00;;;;;;;20.09;51.42;98587.63;263132;1089;26766;-74
2021/08/18 09:37:11;;;;;;;6.83;4.70;;;;;;;19.90;52.11;98587.60;263107;1087;23442;-73
2021/08/18 09:42:30;;;;;;;6.13;3.80;;;;;;;19.85;52.01;98594.08;263069;1087;22846;-73
2021/08/18 09:47:33;;;;;;;5.83;4.40;;;;;;;19.69;52.54;98585.95;263000;1089;22922;-73
2021/08/18 09:52:36;;;;;;;5.53;4.20;;;;;;;19.72;52.55;98589.89;262989;1090;23782;-73
2021/08/18 09:57:40;;;;;;;5.40;3.73;;;;;;;19.84;52.84;98592.53;262799;1087;23385;-75
2021/08/18 10:02:57;;;;;;;3.63;3.20;;;;;;;19.92;52.26;98594.27;263111;1087;22843;-73
2021/08/18 10:08:13;;;;;;;4.27;3.63;;;;;;;19.86;51.26;98589.45;263006;1085;22867;-73
2021/08/18 10:13:17;;;;;;;5.07;4.37;;;;;;;19.75;52.09;98594.61;263732;1087;24046;-74
2021/08/18 10:18:29;;;;;;;5.53;4.37;;;;;;;19.97;52.30;98585.03;262931;1090;24197;-73
2021/08/18 10:24:01;;;;;;;5.30;3.63;;;;;;;19.95;51.47;98585.39;263002;1085;25272;-73
2021/08/18 10:29:11;;;;;;;4.95;4.00;;;;;;;19.79;51.49;98590.86;263162;1088;25426;-73
2021/08/18 10:34:37;;;;;;;4.87;4.13;;;;;;;19.65;51.84;98576.92;263310;1087;22812;-73
2021/08/18 10:39:57;;;;;;;5.60;3.85;;;;;;;19.63;51.86;98573.79;263449;1087;24354;-73
2021/08/18 10:45:01;;;;;;;4.65;3.75;;;;;;;20.06;52.58;98563.84;263086;1090;22747;-72
2021/08/18 10:50:23;;;;;;;4.85;3.40;;;;;;;20.29;52.07;98574.81;262723;1090;22860;-73
2021/08/18 10:55:26;;;;;;;5.63;3.93;;;;;;;20.09;50.50;98582.19;263417;1086;22813;-73
2021/08/18 11:00:41;;;;;;;4.57;3.67;;;;;;;20.06;51.38;98563.08;262902;1089;23056;-73
2021/08/18 11:05:52;;;;;;;5.23;3.53;;;;;;;20.21;51.30;98559.50;262964;1087;25242;-72
2021/08/18 11:10:55;;;;;;;4.63;3.18;;;;;;;20.41;50.07;98570.38;263236;1087;22920;-71
2021/08/18 11:16:26;;;;;;;4.93;3.63;;;;;;;20.30;49.15;98568.24;263224;1088;25877;-74
2021/08/18 11:21:43;;;;;;;4.43;3.53;;;;;;;20.79;48.19;98560.60;263103;1087;22773;-71
2021/08/18 11:26:49;;;;;;;4.58;3.65;;;;;;;21.39;48.08;98564.70;263281;1087;22767;-73
2021/08/18 11:31:57;;;;;;;3.27;2.77;;;;;;;21.68;46.17;98564.00;262922;1087;22803;-72
2021/08/18 11:37:04;;;;;;;3.73;3.10;;;;;;;21.75;46.21;98559.81;263141;1086;23404;-73
2021/08/18 11:42:18;;;;;;;3.75;3.10;;;;;;;21.91;44.68;98554.98;262956;1088;25897;-72
2021/08/18 11:47:21;;;;;;;3.75;2.50;;;;;;;22.10;43.93;98553.26;262980;1086;23033;-73
2021/08/18 11:52:25;;;;;;;2.48;2.28;;;;;;;21.94;44.61;98559.69;262937;1087;22853;-73
2021/08/18 11:57:29;;;;;;;3.00;2.68;;;;;;;22.38;45.74;98559.09;263049;1087;24588;-72
2021/08/18 12:02:34;;;;;;;2.80;2.43;;;;;;;22.40;43.58;98561.45;262952;1087;22738;-73
2021/08/18 12:07:37;;;;;;;3.33;2.45;;;;;;;22.10;43.78;98554.03;263368;1087;22765;-73
2021/08/18 12:12:40;;;;;;;4.13;3.13;;;;;;;21.62;43.65;98551.84;262957;1089;22799;-72
2021/08/18 12:17:45;;;;;;;3.93;2.65;;;;;;;21.46;44.19;98554.72;262997;1089;24312;-72
2021/08/18 12:22:48;;;;;;;3.40;2.80;;;;;;;21.65;45.02;98544.88;263187;1088;22765;-72
2021/08/18 12:28:10;;;;;;;2.50;2.30;;;;;;;21.63;44.05;98555.35;263479;1087;25954;-73
2021/08/18 12:33:18;;;;;;;3.23;2.10;;;;;;;21.86;45.42;98555.30;263314;1087;22859;-72
2021/08/18 12:38:21;;;;;;;2.85;2.58;;;;;;;22.30;44.89;98553.88;263102;1088;22782;-72
2021/08/18 12:43:39;;;;;;;3.20;2.68;;;;;;;22.30;44.00;98548.42;263056;1089;22797;-72
2021/08/18 12:49:27;;;;;;;3.83;3.00;;;;;;;22.23;43.18;98549.11;263040;1087;22819;-74
2021/08/18 12:54:32;;;;;;;3.27;2.40;;;;;;;22.16;43.95;98547.11;262956;1087;22766;-72
2021/08/18 12:59:37;;;;;;;2.78;2.30;;;;;;;21.75;42.94;98543.46;263206;1087;25894;-74
2021/08/18 13:04:40;;;;;;;3.88;2.70;;;;;;;21.39;43.95;98540.19;263207;1087;22763;-74
2021/08/18 13:09:43;;;;;;;3.07;2.50;;;;;;;21.48;44.94;98529.83;263179;1086;22832;-74
2021/08/18 13:14:48;;;;;;;2.80;2.53;;;;;;;21.78;44.63;98521.68;263051;1087;22829;-74
2021/08/18 13:19:52;;;;;;;3.93;3.25;;;;;;;22.32;44.38;98521.56;263212;1090;25897;-73
2021/08/18 13:24:56;;;;;;;3.05;2.40;;;;;;;22.51;43.07;98528.79;263320;1085;25899;-73
2021/08/18 13:29:59;;;;;;;3.53;2.95;;;;;;;22.46;43.06;98516.27;263203;1087;23340;-74
2021/08/18 13:35:03;;;;;;;3.70;2.73;;;;;;;22.36;43.10;98523.19;263253;1087;25746;-73
2021/08/18 13:40:07;;;;;;;3.75;2.93;;;;;;;22.19;43.75;98516.35;267788;1089;24057;-74
2021/08/18 13:45:10;;;;;;;3.80;2.43;;;;;;;22.10;43.68;98510.39;263107;1087;24477;-74
2021/08/18 13:50:28;;;;;;;3.60;2.95;;;;;;;21.89;43.55;98516.38;263001;1087;22966;-74
2021/08/18 13:56:04;;;;;;;2.70;2.48;;;;;;;21.68;43.97;98516.88;262963;1087;25592;-73
2021/08/18 14:01:27;;;;;;;4.65;3.40;;;;;;;21.48;44.95;98513.47;263261;1087;23389;-73
2021/08/18 14:06:36;;;;;;;4.00;3.05;;;;;;;21.39;45.26;98508.27;263875;1088;22783;-72
2021/08/18 14:11:48;;;;;;;3.58;3.25;;;;;;;21.41;45.42;98514.15;263738;1087;26248;-72
2021/08/18 14:17:07;;;;;;;4.95;4.30;;;;;;;21.40;45.84;98511.80;263489;1088;22771;-73
2021/08/18 14:22:11;;;;;;;3.60;3.00;;;;;;;21.11;45.11;98514.08;262927;1090;25890;-73
2021/08/18 14:27:35;;;;;;;4.10;3.70;;;;;;;20.96;46.20;98510.36;263167;1088;25995;-72
2021/08/18 14:33:00;;;;;;;4.30;3.57;;;;;;;20.88;45.78;98511.39;263084;1088;22902;-72
2021/08/18 14:38:03;;;;;;;4.53;3.38;;;;;;;20.80;46.18;98513.99;263116;1085;22790;-74
2021/08/18 14:43:06;;;;;;;3.50;3.20;;;;;;;20.79;46.75;98508.89;262723;1088;25806;-72
2021/08/18 14:48:10;;;;;;;3.80;3.40;;;;;;;20.77;46.88;98501.09;262817;1087;28298;-73
2021/08/18 14:53:14;;;;;;;4.40;3.27;;;;;;;20.90;47.06;98504.44;262850;1089;25889;-73
2021/08/18 14:58:17;;;;;;;56.80;44.35;;;;;;;20.94;47.09;98502.53;263205;1087;25872;-73
2021/08/18 15:03:22;;;;;;;13.45;11.63;;;;;;;21.08;46.63;98501.20;262829;1087;22787;-72
2021/08/18 15:08:32;;;;;;;6.20;5.60;;;;;;;21.16;46.08;98505.61;262858;1084;22774;-72
2021/08/18 15:13:52;;;;;;;6.40;4.90;;;;;;;21.20;45.55;98492.83;262749;1087;25774;-73
2021/08/18 15:19:03;;;;;;;4.70;4.10;;;;;;;21.16;45.77;98497.44;262895;1085;24735;-73
2021/08/18 15:24:09;;;;;;;5.20;4.70;;;;;;;21.16;46.70;98497.44;262667;1089;25799;-72
2021/08/18 15:29:13;;;;;;;5.10;4.60;;;;;;;21.15;46.53;98510.28;262888;1089;22786;-73
2021/08/18 15:34:17;;;;;;;3.78;3.40;;;;;;;21.14;46.38;98497.00;262636;1090;26321;-72
2021/08/18 15:39:22;;;;;;;4.08;3.20;;;;;;;21.14;46.94;98505.97;262712;1088;26002;-73
2021/08/18 15:44:27;;;;;;;3.60;3.23;;;;;;;21.29;46.45;98498.78;262808;1087;26267;-73
2021/08/18 15:49:30;;;;;;;3.33;2.93;;;;;;;21.26;46.27;98491.35;262986;1087;26277;-73
2021/08/18 15:54:33;;;;;;;4.83;3.75;;;;;;;21.21;46.58;98499.86;262681;1087;22801;-73
2021/08/18 15:59:39;;;;;;;3.70;3.13;;;;;;;21.09;46.04;98497.33;262724;1087;24164;-72
2021/08/18 16:04:49;;;;;;;13.30;3.70;;;;;;;20.88;46.51;98484.16;262775;1087;22793;-73
2021/08/18 16:09:54;;;;;;;3.93;3.03;;;;;;;20.71;47.03;98485.45;262734;1087;24294;-73
2021/08/18 16:15:06;;;;;;;14.30;10.78;;;;;;;20.62;47.50;98491.88;262795;1086;22844;-72
2021/08/18 16:20:29;;;;;;;4.20;3.60;;;;;;;20.56;47.64;98496.03;262945;1086;24061;-74
2021/08/18 16:25:33;;;;;;;3.83;3.53;;;;;;;20.59;47.47;98489.86;262834;1086;25838;-72
2021/08/18 16:30:37;;;;;;;4.17;3.27;;;;;;;20.66;48.31;98483.77;262802;1087;22773;-74
2021/08/18 16:35:40;;;;;;;5.53;3.83;;;;;;;20.75;47.34;98480.82;262906;1085;25919;-72
2021/08/18 16:40:43;;;;;;;4.03;3.30;;;;;;;20.56;47.37;98487.88;262802;1089;23088;-72
2021/08/18 16:45:47;;;;;;;4.57;3.53;;;;;;;20.32;47.74;98492.50;262850;1090;26002;-73
2021/08/18 16:50:50;;;;;;;6.23;4.33;;;;;;;20.02;47.79;98486.89;262829;1090;22776;-72
2021/08/18 16:55:56;;;;;;;4.68;3.80;;;;;;;19.75;48.65;98491.34;262766;1090;22897;-72
2021/08/18 17:00:59;;;;;;;4.20;3.50;;;;;;;19.54;49.10;98489.73;262692;1087;25874;-73
2021/08/18 17:06:03;;;;;;;5.45;4.00;;;;;;;19.34;49.75;98485.44;262677;1090;24308;-73
2021/08/18 17:11:07;;;;;;;4.80;4.33;;;;;;;19.18;50.19;98491.67;262803;1089;22873;-72
2021/08/18 17:16:11;;;;;;;4.40;3.95;;;;;;;19.08;50.81;98490.28;262803;1090;25877;-74
2021/08/18 17:21:14;;;;;;;5.83;4.37;;;;;;;18.94;51.03;98485.30;262776;1089;22847;-72
2021/08/18 17:26:17;;;;;;;5.40;3.80;;;;;;;18.74;51.81;98487.09;262777;1088;23660;-71
2021/08/18 17:31:21;;;;;;;5.35;4.25;;;;;;;18.54;51.95;98486.22;262802;1085;26063;-72
2021/08/18 17:36:24;;;;;;;4.65;4.25;;;;;;;18.35;52.33;98481.45;262706;1087;22916;-73
2021/08/18 17:41:28;;;;;;;4.85;4.30;;;;;;;18.24;52.81;98486.61;262817;1087;22921;-72
2021/08/18 17:46:31;;;;;;;6.00;5.05;;;;;;;18.15;53.17;98494.09;262938;1087;25874;-73
2021/08/18 17:51:34;;;;;;;7.35;5.45;;;;;;;18.05;53.45;98491.89;262659;1087;22902;-72
2021/08/18 17:56:42;;;;;;;4.93;4.43;;;;;;;17.93;53.75;98504.33;262627;1087;24338;-72
2021/08/18 18:01:45;;;;;;;5.50;4.60;;;;;;;17.80;54.30;98494.64;262692;1087;25996;-74
2021/08/18 18:06:49;;;;;;;6.30;4.40;;;;;;;17.58;54.54;98506.77;262721;1087;22790;-73
2021/08/18 18:11:53;;;;;;;7.60;3.90;;;;;;;17.35;55.08;98495.61;262836;1086;25932;-73
2021/08/18 18:16:57;;;;;;;4.60;3.90;;;;;;;17.16;55.04;98502.40;262939;1090;22865;-73
2021/08/18 18:22:00;;;;;;;6.10;4.45;;;;;;;16.96;55.58;98497.88;262762;1087;25852;-73
2021/08/18 18:27:04;;;;;;;6.75;4.80;;;;;;;16.79;56.34;98510.47;262794;1088;22774;-73
2021/08/18 18:32:07;;;;;;;4.53;3.50;;;;;;;16.69;56.96;98519.00;262841;1087;22939;-72
2021/08/18 18:37:11;;;;;;;5.25;4.60;;;;;;;16.65;57.01;98524.30;262626;1088;22799;-73
2021/08/18 18:42:17;;;;;;;4.55;4.15;;;;;;;16.64;57.73;98520.02;262777;1085;22733;-73
2021/08/18 18:47:30;;;;;;;4.85;3.80;;;;;;;16.58;57.85;98516.73;262670;1088;25996;-72
2021/08/18 18:52:53;;;;;;;5.17;3.97;;;;;;;16.48;58.18;98513.66;262654;1087;24325;-74
2021/08/18 18:57:58;;;;;;;3.45;2.90;;;;;;;16.37;58.01;98507.91;262666;1086;22805;-72
2021/08/18 19:03:02;;;;;;;6.75;3.50;;;;;;;16.26;58.59;98515.63;262775;1085;22988;-72
2021/08/18 19:08:05;;;;;;;4.65;3.85;;;;;;;16.13;58.72;98508.58;262742;1087;22975;-72
2021/08/18 19:13:08;;;;;;;4.50;3.60;;;;;;;16.01;59.15;98517.44;262642;1087;24173;-70
2021/08/18 19:18:12;;;;;;;3.75;2.80;;;;;;;15.93;59.40;98521.77;262814;1087;23350;-72
2021/08/18 19:23:15;;;;;;;6.15;3.95;;;;;;;15.92;59.64;98514.78;262646;1086;27086;-72
2021/08/18 19:28:18;;;;;;;5.85;4.25;;;;;;;15.92;59.87;98514.78;262662;1087;23343;-72
2021/08/18 19:33:21;;;;;;;4.90;4.10;;;;;;;15.91;60.10;98513.22;262887;1087;23574;-73
2021/08/18 19:38:45;;;;;;;5.40;3.80;;;;;;;15.92;59.92;98512.08;262731;1087;22815;-71
2021/08/18 19:43:55;;;;;;;4.35;3.05;;;;;;;15.97;60.18;98513.81;262677;1087;24290;-71
2021/08/18 19:48:59;;;;;;;4.30;3.40;;;;;;;16.03;60.14;98509.77;262802;1088;22793;-72
2021/08/18 19:54:03;;;;;;;3.00;2.50;;;;;;;16.12;60.28;98509.70;262705;1087;25736;-73
2021/08/18 19:59:26;;;;;;;4.30;2.80;;;;;;;16.24;59.91;98512.45;262755;1089;24036;-72
2021/08/18 20:04:30;;;;;;;5.10;3.30;;;;;;;16.33;60.11;98515.88;262708;1087;24019;-72
2021/08/18 20:09:40;;;;;;;4.45;2.90;;;;;;;16.40;60.01;98509.94;262770;1087;27555;-73
2021/08/18 20:14:44;;;;;;;4.95;3.15;;;;;;;16.45;59.87;98504.30;262748;1087;25874;-74
2021/08/18 20:19:47;;;;;;;4.30;2.90;;;;;;;16.48;59.79;98498.25;262878;1088;27135;-71
2021/08/18 20:24:51;;;;;;;4.90;2.80;;;;;;;16.50;59.54;98495.98;262678;1089;26028;-72
2021/08/18 20:29:54;;;;;;;5.30;4.20;;;;;;;16.50;59.66;98498.69;262816;1087;24335;-73
2021/08/18 20:34:57;;;;;;;4.10;3.20;;;;;;;16.44;59.57;98491.92;262684;1089;26261;-72
2021/08/18 20:40:14;;;;;;;3.83;2.27;;;;;;;16.36;59.56;98501.69;262730;1087;22844;-73
2021/08/18 20:45:25;;;;;;;4.10;2.70;;;;;;;16.33;59.85;98502.36;262697;1087;22841;-73
2021/08/18 20:50:28;;;;;;;4.10;2.60;;;;;;;16.32;60.18;98510.80;262687;1087;27096;-72
2021/08/18 20:55:35;;;;;;;3.40;2.50;;;;;;;16.25;60.85;98506.71;262708;1087;22915;-73
2021/08/18 21:00:38;;;;;;;3.77;2.73;;;;;;;16.22;60.77;98504.68;262700;1086;22870;-72
2021/08/18 21:05:42;;;;;;;4.00;2.75;;;;;;;16.17;60.80;98515.72;262688;1089;22796;-72
2021/08/18 21:10:45;;;;;;;4.60;2.60;;;;;;;16.10;60.91;98506.55;262783;1088;25535;-73
2021/08/18 21:15:59;;;;;;;20.85;14.90;;;;;;;16.01;61.01;98506.63;262955;1086;25330;-73
2021/08/18 21:21:18;;;;;;;4.10;3.00;;;;;;;15.93;61.54;98502.09;262700;1087;25877;-72
2021/08/18 21:26:22;;;;;;;4.33;2.63;;;;;;;15.82;61.83;98507.89;262693;1090;22943;-72
2021/08/18 21:31:32;;;;;;;4.00;2.60;;;;;;;15.69;62.34;98508.91;262613;1089;25855;-72
2021/08/18 21:36:35;;;;;;;3.50;2.60;;;;;;;15.54;62.47;98508.38;262859;1088;22766;-71
2021/08/18 21:41:39;;;;;;;3.00;2.30;;;;;;;15.38;62.86;98510.05;262670;1089;25989;-72
2021/08/18 21:46:42;;;;;;;3.80;2.63;;;;;;;15.23;63.17;98506.00;262846;1090;25970;-72
2021/08/18 21:51:46;;;;;;;5.17;2.80;;;;;;;15.09;63.83;98511.62;262772;1087;26021;-71
2021/08/18 21:56:50;;;;;;;4.47;2.60;;;;;;;14.96;64.28;98507.25;262897;1089;24352;-72
2021/08/18 22:01:53;;;;;;;3.20;2.30;;;;;;;14.89;64.62;98513.14;262733;1088;24313;-71
2021/08/18 22:06:56;;;;;;;3.60;2.40;;;;;;;14.82;65.02;98502.84;262896;1087;22811;-72
2021/08/18 22:12:01;;;;;;;3.50;2.80;;;;;;;14.70;65.38;98503.53;262772;1088;25893;-72
2021/08/18 22:17:09;;;;;;;6.40;2.70;;;;;;;14.59;65.75;98504.16;262847;1088;22821;-72
2021/08/18 22:22:12;;;;;;;3.83;2.93;;;;;;;14.52;66.17;98502.76;262740;1087;26295;-72
2021/08/18 22:27:16;;;;;;;5.50;2.70;;;;;;;14.47;66.45;98508.31;262728;1090;24387;-73
2021/08/18 22:32:40;;;;;;;4.80;2.93;;;;;;;14.47;66.72;98508.31;262662;1090;24473;-72
2021/08/18 22:37:44;;;;;;;4.70;2.70;;;;;;;14.54;67.14;98507.83;262697;1090;22795;-72
2021/08/18 22:42:48;;;;;;;4.60;3.27;;;;;;;14.59;67.34;98509.55;262817;1089;24494;-72
2021/08/18 22:47:52;;;;;;;5.70;3.30;;;;;;;14.53;67.44;98507.02;262792;1087;25874;-72
2021/08/18 22:52:55;;;;;;;4.00;2.90;;;;;;;14.44;67.61;98503.56;262608;1088;25958;-73
2021/08/18 22:57:59;;;;;;;5.25;3.10;;;;;;;14.37;68.10;98504.05;262630;1089;22843;-72
2021/08/18 23:03:03;;;;;;;4.57;3.33;;;;;;;14.32;68.14;98503.42;262603;1090;25893;-72
2021/08/18 23:08:06;;;;;;;4.80;3.10;;;;;;;14.25;68.45;98497.73;262740;1087;26005;-73
2021/08/18 23:13:09;;;;;;;4.50;3.60;;;;;;;14.17;68.79;98494.73;262614;1090;25877;-72
2021/08/18 23:18:13;;;;;;;3.70;2.95;;;;;;;14.11;69.14;98498.69;262664;1086;22873;-72
2021/08/18 23:23:16;;;;;;;4.20;3.00;;;;;;;14.06;69.34;98503.44;262755;1087;23051;-72
2021/08/18 23:28:21;;;;;;;4.35;3.40;;;;;;;14.01;69.67;98504.41;262767;1087;24290;-72
2021/08/18 23:33:24;;;;;;;4.27;3.10;;;;;;;13.97;70.10;98496.16;262779;1087;22840;-72
2021/08/18 23:38:27;;;;;;;5.23;3.30;;;;;;;13.94;70.31;98507.56;262777;1087;23360;-72
2021/08/18 23:43:37;;;;;;;4.65;2.90;;;;;;;13.91;70.70;98510.12;262663;1087;23408;-71
2021/08/18 23:48:41;;;;;;;5.50;3.05;;;;;;;13.89;70.89;98501.55;262718;1087;25295;-71